Flight Track Log - Related Links

Times and Time Zones

All times are in EDT time to prevent confusion due to time zone crossing. See the N761P flight status page for this flight to view local times or setup timezone preferences in your user account.

Time Position Orientation Groundspeed Altitude Reporting Facility
EDT Latitude Longitude Course Direction KTS MPH feet Rate Location/Type
Wed 03:39:54 AM 38.8133 -82.3231 North 164 189 4,000  Level Indianapolis Center
Wed 03:40:54 AM 38.8583 -82.3125 10° North 164 189 4,200 250 Climbing Indianapolis Center
Wed 03:41:54 AM 38.9044 -82.3000 12° North 167 192 4,500 150 Climbing Indianapolis Center
Wed 03:42:54 AM 38.9500 -82.2897 10° North 166 191 4,500  Level Indianapolis Center
Wed 03:43:55 AM 38.9958 -82.2778 11° North 168 193 4,500  Level Indianapolis Center
Wed 03:44:55 AM 39.0419 -82.2667 11° North 168 193 4,500  Level Indianapolis Center
Wed 03:45:00 AM 39.0902 -82.1192 North  Level Estimated
Wed 03:45:55 AM 39.0872 -82.2553 11° North 167 192 4,500  Level Indianapolis Center
Wed 03:46:55 AM 39.1325 -82.2431 12° North 167 192 4,500 -50 Level Indianapolis Center
Wed 03:47:56 AM 39.1792 -82.2317 11° North 170 196 4,400 -50 Descending Indianapolis Center
Wed 03:48:56 AM 39.2269 -82.2186 12° North 173 199 4,400  Level Indianapolis Center
Wed 03:49:56 AM 39.2736 -82.2081 10° North 171 197 4,400  Level Indianapolis Center
Wed 03:50:57 AM 39.3200 -82.1964 11° North 171 197 4,400  Level Indianapolis Center
Wed 03:51:57 AM 39.3672 -82.1844 11° North 172 198 4,400  Level Indianapolis Center
Wed 03:52:57 AM 39.4133 -82.1731 11° North 170 196 4,400  Level Indianapolis Center
Wed 03:53:57 AM 39.4642 -82.1597 11° North 172 198 4,400  Level Indianapolis Center
Wed 03:54:58 AM 39.5108 -82.1483 11° North 169 194 4,400  Level Indianapolis Center
Wed 03:55:58 AM 39.5572 -82.1369 11° North 169 194 4,400 50 Level Indianapolis Center
Wed 03:56:58 AM 39.6006 -82.1253 12° North 171 197 4,500 50 Climbing Indianapolis Center
Wed 03:57:59 AM 39.6478 -82.1114 13° North 173 199 4,500  Level Indianapolis Center
Wed 03:58:59 AM 39.6956 -82.1006 10° North 174 200 4,500 -50 Level Indianapolis Center
Wed 03:59:59 AM 39.7389 -82.0894 11° North 170 196 4,400 -50 Descending Indianapolis Center
Wed 04:01:00 AM 39.7861 -82.0778 11° North 172 198 4,400  Level Indianapolis Center
Wed 04:02:00 AM 39.8325 -82.0650 12° North 169 194 4,400  Level Indianapolis Center
Wed 04:03:00 AM 39.8803 -82.0533 11° North 172 198 4,400  Level Indianapolis Center
Wed 04:04:01 AM 39.9256 -82.0406 12° North 168 193 4,400  Level Indianapolis Center
Wed 04:05:01 AM 39.9725 -82.0292 11° North 170 196 4,400  Level Indianapolis Center
Wed 04:06:01 AM 40.0189 -82.0172 11° North 169 194 4,400  Level Indianapolis Center
Wed 04:07:01 AM 40.0664 -82.0036 12° North 172 198 4,400  Level Indianapolis Center
Wed 04:08:02 AM 40.1147 -81.9933 North 176 203 4,400  Level Indianapolis Center
Wed 04:09:02 AM 40.1622 -81.9808 11° North 175 201 4,400  Level Indianapolis Center
Wed 04:10:02 AM 40.2094 -81.9681 12° North 172 198 4,400  Level Indianapolis Center
Wed 04:11:03 AM 40.2553 -81.9567 11° North 174 200 4,400  Level Indianapolis Center
Wed 04:12:03 AM 40.3033 -81.9442 11° North 173 199 4,400  Level Indianapolis Center
Wed 04:13:03 AM 40.3500 -81.9325 11° North 172 198 4,400  Level Indianapolis Center
Wed 04:14:04 AM 40.3972 -81.9197 12° North 171 197 4,400  Level Indianapolis Center
Wed 04:15:04 AM 40.4439 -81.9064 12° North 172 198 4,400  Level Indianapolis Center
Wed 04:16:05 AM 40.4900 -81.8942 11° North 170 196 4,400  Level Indianapolis Center
Wed 04:17:05 AM 40.5381 -81.8814 11° North 173 199 4,400  Level Indianapolis Center
Wed 04:18:05 AM 40.5850 -81.8686 12° North 172 198 4,400  Level Indianapolis Center
Wed 04:19:06 AM 40.6319 -81.8564 11° North 171 197 4,400  Level Indianapolis Center
Wed 04:19:38 AM 40.6625 -81.8478 12° North 162 186 4,400  Level Cleveland Center
Wed 04:20:38 AM 40.7044 -81.8375 11° North 162 186 4,400  Level Cleveland Center
Wed 04:21:38 AM 40.7503 -81.8247 12° North 162 186 4,400  Level Cleveland Center
Wed 04:22:38 AM 40.7964 -81.8119 12° North 162 186 4,400 -58 Level Cleveland Center
Wed 04:23:21 AM 40.8319 -81.8069 North 168 193 4,300  Descending Cleveland Center
Wed 04:23:38 AM 40.8425 -81.7989 30° Northeast 162 186 4,400  Climbing Cleveland Center
Wed 04:24:27 AM 40.8800 -81.7914 North 170 196 4,300 55 Descending Cleveland Center
Wed 04:25:28 AM 40.9261 -81.7758 14° North 181 208 4,500  Climbing Cleveland Center
Wed 04:26:29 AM 40.9719 -81.7683 North 176 203 4,300 -248 Descending Cleveland Center
Wed 04:27:29 AM 41.0181 -81.7556 12° North 167 192 4,000 -298 Descending Cleveland Center
Wed 04:28:30 AM 41.0703 -81.7425 11° North 177 204 3,700 -298 Descending Cleveland Center
Wed 04:29:30 AM 41.1183 -81.7325 North 174 200 3,400 -248 Descending Cleveland Center
Wed 04:30:31 AM 41.1664 -81.7139 16° North 176 203 3,200 -246 Descending Cleveland Center
Wed 04:31:32 AM 41.2122 -81.7039 North 175 201 2,900 -248 Descending Cleveland Center
Wed 04:32:32 AM 41.2625 -81.6936 North 177 204 2,700 -198 Descending Cleveland Center
Wed 04:33:33 AM 41.3106 -81.6778 14° North 181 208 2,500 -99 Descending Cleveland Center
Wed 04:34:33 AM 41.3628 -81.6647 11° North 177 204 2,500  Level Cleveland Center
Wed 04:35:34 AM 41.4089 -81.6461 17° North 175 201 2,500  Level Cleveland Center
Wed 04:36:35 AM 41.4486 -81.6358 11° North 133 153 2,500  Level Cleveland Center
Wed 04:38:00 AM 41.5050 -81.6747 13° North  Level Estimated
Wed 04:45:00 AM 41.5167 -81.6667 13° North  Level FlightAware Approximate
Wed 04:46:00 AM 41.5175 -81.6833 13° North  Level Estimated
Wed 04:47:00 AM 41.5175 -81.6833 13° North  Level Estimated
Wed 04:48:00 AM 41.5175 -81.6833 13° North  Level Estimated

Login

Don't have an account? Register now (free) for customized features, flight alerts, and more!